sensor_id;sensor_type;location;lat;lon;timestamp;pressure;altitude;pressure_sealevel;temperature;humidity
83551;BME280;74617;47.082;15.524;2024-01-16T00:00:33;95538.63;;;18.51;39.12
83551;BME280;74617;47.082;15.524;2024-01-16T00:02:59;95538.63;;;18.51;39.05
83551;BME280;74617;47.082;15.524;2024-01-16T00:05:24;95542.84;;;18.48;39.10
83551;BME280;74617;47.082;15.524;2024-01-16T00:07:50;95547.50;;;18.48;39.03
83551;BME280;74617;47.082;15.524;2024-01-16T00:10:15;95560.31;;;18.47;39.10
83551;BME280;74617;47.082;15.524;2024-01-16T00:12:41;95565.75;;;18.47;39.03
83551;BME280;74617;47.082;15.524;2024-01-16T00:15:07;95573.13;;;18.47;39.04
83551;BME280;74617;47.082;15.524;2024-01-16T00:17:34;95574.25;;;18.46;39.15
83551;BME280;74617;47.082;15.524;2024-01-16T00:19:59;95579.69;;;18.46;39.11
83551;BME280;74617;47.082;15.524;2024-01-16T00:22:26;95591.72;;;18.45;39.14
83551;BME280;74617;47.082;15.524;2024-01-16T00:24:52;95586.63;;;18.43;39.17
83551;BME280;74617;47.082;15.524;2024-01-16T00:27:17;95581.13;;;18.40;39.13
83551;BME280;74617;47.082;15.524;2024-01-16T00:29:43;95591.63;;;18.41;39.14
83551;BME280;74617;47.082;15.524;2024-01-16T00:32:08;95595.50;;;18.40;39.38
83551;BME280;74617;47.082;15.524;2024-01-16T00:34:34;95604.44;;;18.41;39.24
83551;BME280;74617;47.082;15.524;2024-01-16T00:36:59;95595.84;;;18.39;39.29
83551;BME280;74617;47.082;15.524;2024-01-16T00:39:25;95602.41;;;18.38;39.28
83551;BME280;74617;47.082;15.524;2024-01-16T00:41:50;95606.72;;;18.39;39.19
83551;BME280;74617;47.082;15.524;2024-01-16T00:44:15;95611.38;;;18.38;39.48
83551;BME280;74617;47.082;15.524;2024-01-16T00:46:41;95607.84;;;18.38;39.39
83551;BME280;74617;47.082;15.524;2024-01-16T00:49:06;95609.00;;;18.37;39.48
83551;BME280;74617;47.082;15.524;2024-01-16T00:51:33;95609.00;;;18.37;39.42
83551;BME280;74617;47.082;15.524;2024-01-16T00:53:58;95623.84;;;18.39;39.39
83551;BME280;74617;47.082;15.524;2024-01-16T00:56:24;95625.69;;;18.35;39.33
83551;BME280;74617;47.082;15.524;2024-01-16T00:58:52;95621.38;;;18.34;39.43
83551;BME280;74617;47.082;15.524;2024-01-16T01:01:19;95627.25;;;18.36;39.40
83551;BME280;74617;47.082;15.524;2024-01-16T01:03:44;95634.63;;;18.36;39.36
83551;BME280;74617;47.082;15.524;2024-01-16T01:06:09;95639.28;;;18.35;39.48
83551;BME280;74617;47.082;15.524;2024-01-16T01:08:35;95641.91;;;18.31;39.48
83551;BME280;74617;47.082;15.524;2024-01-16T01:11:00;95647.00;;;18.33;39.50
83551;BME280;74617;47.082;15.524;2024-01-16T01:13:26;95652.44;;;18.33;39.51
83551;BME280;74617;47.082;15.524;2024-01-16T01:15:51;95666.03;;;18.33;39.58
83551;BME280;74617;47.082;15.524;2024-01-16T01:18:17;95668.75;;;18.33;39.29
83551;BME280;74617;47.082;15.524;2024-01-16T01:20:42;95669.44;;;18.30;39.58
83551;BME280;74617;47.082;15.524;2024-01-16T01:23:08;95679.19;;;18.31;39.59
83551;BME280;74617;47.082;15.524;2024-01-16T01:25:33;95678.03;;;18.32;39.42
83551;BME280;74617;47.082;15.524;2024-01-16T01:27:58;95671.03;;;18.31;39.50
83551;BME280;74617;47.082;15.524;2024-01-16T01:30:24;95687.25;;;18.27;39.51
83551;BME280;74617;47.082;15.524;2024-01-16T01:32:49;95685.69;;;18.26;39.44
83551;BME280;74617;47.082;15.524;2024-01-16T01:35:17;95689.97;;;18.27;39.61
83551;BME280;74617;47.082;15.524;2024-01-16T01:37:44;95693.06;;;18.26;39.43
83551;BME280;74617;47.082;15.524;2024-01-16T01:40:10;95687.63;;;18.26;39.55
83551;BME280;74617;47.082;15.524;2024-01-16T01:42:40;95687.16;;;18.24;39.59
83551;BME280;74617;47.082;15.524;2024-01-16T01:45:06;95689.88;;;18.24;39.68
83551;BME280;74617;47.082;15.524;2024-01-16T01:47:32;95691.44;;;18.25;39.65
83551;BME280;74617;47.082;15.524;2024-01-16T01:49:58;95689.44;;;18.22;39.57
83551;BME280;74617;47.082;15.524;2024-01-16T01:52:24;95696.47;;;18.23;39.66
83551;BME280;74617;47.082;15.524;2024-01-16T01:54:51;95699.53;;;18.21;39.53
83551;BME280;74617;47.082;15.524;2024-01-16T01:57:17;95699.88;;;18.20;39.39
83551;BME280;74617;47.082;15.524;2024-01-16T01:59:43;95695.59;;;18.19;39.76
83551;BME280;74617;47.082;15.524;2024-01-16T02:02:08;95690.94;;;18.19;39.81
83551;BME280;74617;47.082;15.524;2024-01-16T02:04:36;95702.13;;;18.18;39.54
83551;BME280;74617;47.082;15.524;2024-01-16T02:07:02;95701.81;;;18.19;39.73
83551;BME280;74617;47.082;15.524;2024-01-16T02:09:29;95703.63;;;18.15;39.79
83551;BME280;74617;47.082;15.524;2024-01-16T02:11:54;95704.78;;;18.14;39.73
83551;BME280;74617;47.082;15.524;2024-01-16T02:14:20;95707.16;;;18.16;39.77
83551;BME280;74617;47.082;15.524;2024-01-16T02:16:45;95711.00;;;18.15;39.90
83551;BME280;74617;47.082;15.524;2024-01-16T02:19:11;95718.81;;;18.16;40.11
83551;BME280;74617;47.082;15.524;2024-01-16T02:21:42;95725.03;;;18.17;39.89
83551;BME280;74617;47.082;15.524;2024-01-16T02:24:10;95724.59;;;18.15;39.83
83551;BME280;74617;47.082;15.524;2024-01-16T02:26:36;95726.19;;;18.16;39.95
83551;BME280;74617;47.082;15.524;2024-01-16T02:29:02;95731.53;;;18.12;40.04
83551;BME280;74617;47.082;15.524;2024-01-16T02:31:30;95728.09;;;18.15;39.91
83551;BME280;74617;47.082;15.524;2024-01-16T02:33:56;95729.25;;;18.14;39.86
83551;BME280;74617;47.082;15.524;2024-01-16T02:36:21;95737.06;;;18.16;39.79
83551;BME280;74617;47.082;15.524;2024-01-16T02:38:46;95735.84;;;18.13;39.67
83551;BME280;74617;47.082;15.524;2024-01-16T02:41:16;95731.84;;;18.11;40.11
83551;BME280;74617;47.082;15.524;2024-01-16T02:43:42;95731.06;;;18.10;39.82
83551;BME280;74617;47.082;15.524;2024-01-16T02:46:08;95739.69;;;18.12;39.94
83551;BME280;74617;47.082;15.524;2024-01-16T02:48:36;95738.88;;;18.12;39.99
83551;BME280;74617;47.082;15.524;2024-01-16T02:51:03;95747.03;;;18.12;40.00
83551;BME280;74617;47.082;15.524;2024-01-16T02:53:31;95751.59;;;18.08;40.02
83551;BME280;74617;47.082;15.524;2024-01-16T02:55:57;95755.88;;;18.09;40.16
83551;BME280;74617;47.082;15.524;2024-01-16T02:58:26;95750.44;;;18.09;39.85
83551;BME280;74617;47.082;15.524;2024-01-16T03:00:51;95750.03;;;18.07;40.25
83551;BME280;74617;47.082;15.524;2024-01-16T03:03:18;95760.53;;;18.08;39.78
83551;BME280;74617;47.082;15.524;2024-01-16T03:05:44;95756.59;;;18.06;40.12
83551;BME280;74617;47.082;15.524;2024-01-16T03:08:10;95766.34;;;18.07;39.94
83551;BME280;74617;47.082;15.524;2024-01-16T03:10:35;95770.97;;;18.06;40.17
83551;BME280;74617;47.082;15.524;2024-01-16T03:13:01;95771.31;;;18.04;40.04
83551;BME280;74617;47.082;15.524;2024-01-16T03:15:27;95773.59;;;18.02;40.11
83551;BME280;74617;47.082;15.524;2024-01-16T03:17:52;95770.50;;;18.04;40.21
83551;BME280;74617;47.082;15.524;2024-01-16T03:20:17;95780.59;;;18.03;40.10
83551;BME280;74617;47.082;15.524;2024-01-16T03:22:48;95783.31;;;18.03;40.02
83551;BME280;74617;47.082;15.524;2024-01-16T03:25:14;95788.31;;;18.01;40.14
83551;BME280;74617;47.082;15.524;2024-01-16T03:27:39;95779.13;;;18.06;39.83
83551;BME280;74617;47.082;15.524;2024-01-16T03:30:05;95787.59;;;18.04;39.84
83551;BME280;74617;47.082;15.524;2024-01-16T03:32:31;95779.81;;;18.03;39.82
83551;BME280;74617;47.082;15.524;2024-01-16T03:34:57;95785.25;;;18.03;39.91
83551;BME280;74617;47.082;15.524;2024-01-16T03:37:22;95795.31;;;18.02;39.74
83551;BME280;74617;47.082;15.524;2024-01-16T03:39:48;95791.03;;;18.01;39.53
83551;BME280;74617;47.082;15.524;2024-01-16T03:42:15;95792.59;;;18.02;39.89
83551;BME280;74617;47.082;15.524;2024-01-16T03:44:41;95795.31;;;18.02;39.95
83551;BME280;74617;47.082;15.524;2024-01-16T03:47:07;95804.72;;;18.05;39.77
83551;BME280;74617;47.082;15.524;2024-01-16T03:49:32;95800.53;;;18.08;39.97
83551;BME280;74617;47.082;15.524;2024-01-16T03:51:58;95804.38;;;18.07;39.96
83551;BME280;74617;47.082;15.524;2024-01-16T03:54:24;95808.31;;;18.09;39.82
83551;BME280;74617;47.082;15.524;2024-01-16T03:56:49;95809.47;;;18.08;40.04
83551;BME280;74617;47.082;15.524;2024-01-16T03:59:16;95812.63;;;18.10;40.03
83551;BME280;74617;47.082;15.524;2024-01-16T04:01:42;95820.44;;;18.12;40.04
83551;BME280;74617;47.082;15.524;2024-01-16T04:04:09;95825.88;;;18.12;39.96
83551;BME280;74617;47.082;15.524;2024-01-16T04:06:35;95827.78;;;18.11;40.11
83551;BME280;74617;47.082;15.524;2024-01-16T04:09:01;95821.56;;;18.11;40.00
83551;BME280;74617;47.082;15.524;2024-01-16T04:11:26;95834.03;;;18.12;39.94
83551;BME280;74617;47.082;15.524;2024-01-16T04:13:52;95829.72;;;18.11;39.99
83551;BME280;74617;47.082;15.524;2024-01-16T04:16:17;95841.06;;;18.13;39.93
83551;BME280;74617;47.082;15.524;2024-01-16T04:18:43;95832.13;;;18.12;40.25
83551;BME280;74617;47.082;15.524;2024-01-16T04:21:09;95842.28;;;18.15;40.11
83551;BME280;74617;47.082;15.524;2024-01-16T04:23:34;95841.50;;;18.15;39.96
83551;BME280;74617;47.082;15.524;2024-01-16T04:26:00;95840.72;;;18.14;39.99
83551;BME280;74617;47.082;15.524;2024-01-16T04:28:26;95845.91;;;18.19;40.06
83551;BME280;74617;47.082;15.524;2024-01-16T04:30:51;95840.78;;;18.18;40.09
83551;BME280;74617;47.082;15.524;2024-01-16T04:33:17;95844.31;;;18.18;40.03
83551;BME280;74617;47.082;15.524;2024-01-16T04:35:43;95849.75;;;18.18;40.12
83551;BME280;74617;47.082;15.524;2024-01-16T04:38:08;95859.50;;;18.19;40.11
83551;BME280;74617;47.082;15.524;2024-01-16T04:40:33;95849.41;;;18.20;40.18
83551;BME280;74617;47.082;15.524;2024-01-16T04:42:59;95857.56;;;18.20;40.08
83551;BME280;74617;47.082;15.524;2024-01-16T04:45:25;95866.53;;;18.20;40.01
83551;BME280;74617;47.082;15.524;2024-01-16T04:47:50;95869.25;;;18.20;40.19
83551;BME280;74617;47.082;15.524;2024-01-16T04:50:15;95872.75;;;18.21;39.90
83551;BME280;74617;47.082;15.524;2024-01-16T04:52:41;95871.16;;;18.20;40.16
83551;BME280;74617;47.082;15.524;2024-01-16T04:55:06;95882.03;;;18.20;40.20
83551;BME280;74617;47.082;15.524;2024-01-16T04:57:33;95878.19;;;18.21;40.38
83551;BME280;74617;47.082;15.524;2024-01-16T04:59:58;95886.34;;;18.21;40.23
83551;BME280;74617;47.082;15.524;2024-01-16T05:02:23;95888.72;;;18.22;40.24
83551;BME280;74617;47.082;15.524;2024-01-16T05:04:49;95902.31;;;18.22;39.95
83551;BME280;74617;47.082;15.524;2024-01-16T05:07:18;95897.31;;;18.24;40.16
83551;BME280;74617;47.082;15.524;2024-01-16T05:09:45;95899.22;;;18.24;40.03
83551;BME280;74617;47.082;15.524;2024-01-16T05:12:11;95910.91;;;18.24;40.17
83551;BME280;74617;47.082;15.524;2024-01-16T05:14:36;95905.47;;;18.24;39.96
83551;BME280;74617;47.082;15.524;2024-01-16T05:17:02;95907.06;;;18.25;40.20
83551;BME280;74617;47.082;15.524;2024-01-16T05:19:27;95910.56;;;18.26;39.88
83551;BME280;74617;47.082;15.524;2024-01-16T05:21:53;95907.38;;;18.24;40.03
83551;BME280;74617;47.082;15.524;2024-01-16T05:24:18;95915.22;;;18.25;40.08
83551;BME280;74617;47.082;15.524;2024-01-16T05:26:43;95907.06;;;18.25;40.08
83551;BME280;74617;47.082;15.524;2024-01-16T05:29:09;95914.09;;;18.26;40.04
83551;BME280;74617;47.082;15.524;2024-01-16T05:31:40;95914.88;;;18.27;40.12
83551;BME280;74617;47.082;15.524;2024-01-16T05:34:05;95916.44;;;18.28;40.01
83551;BME280;74617;47.082;15.524;2024-01-16T05:36:30;95920.31;;;18.27;40.00
83551;BME280;74617;47.082;15.524;2024-01-16T05:38:56;95921.09;;;18.27;40.16
83551;BME280;74617;47.082;15.524;2024-01-16T05:41:21;95928.91;;;18.29;39.99
83551;BME280;74617;47.082;15.524;2024-01-16T05:43:46;95932.84;;;18.31;40.02
83551;BME280;74617;47.082;15.524;2024-01-16T05:46:12;95934.47;;;18.33;40.06
83551;BME280;74617;47.082;15.524;2024-01-16T05:48:38;95933.66;;;18.32;39.93
83551;BME280;74617;47.082;15.524;2024-01-16T05:51:03;95934.47;;;18.33;40.04
83551;BME280;74617;47.082;15.524;2024-01-16T05:53:30;95942.28;;;18.34;39.97
83551;BME280;74617;47.082;15.524;2024-01-16T05:55:55;95943.84;;;18.35;40.01
83551;BME280;74617;47.082;15.524;2024-01-16T05:58:21;95947.34;;;18.36;40.07
83551;BME280;74617;47.082;15.524;2024-01-16T06:00:47;95950.88;;;18.36;39.95
83551;BME280;74617;47.082;15.524;2024-01-16T06:03:12;95950.88;;;18.36;40.03
83551;BME280;74617;47.082;15.524;2024-01-16T06:05:38;95945.09;;;18.38;39.93
83551;BME280;74617;47.082;15.524;2024-01-16T06:08:03;95954.50;;;18.40;40.16
83551;BME280;74617;47.082;15.524;2024-01-16T06:10:29;95958.34;;;18.39;39.97
83551;BME280;74617;47.082;15.524;2024-01-16T06:12:54;95960.38;;;18.42;39.81
83551;BME280;74617;47.082;15.524;2024-01-16T06:15:20;95958.44;;;18.43;39.88
83551;BME280;74617;47.082;15.524;2024-01-16T06:17:45;95968.78;;;18.25;40.77
83551;BME280;74617;47.082;15.524;2024-01-16T06:20:10;95967.69;;;18.14;41.81
83551;BME280;74617;47.082;15.524;2024-01-16T06:22:36;95973.25;;;18.05;41.83
83551;BME280;74617;47.082;15.524;2024-01-16T06:25:01;95974.16;;;17.97;41.23
83551;BME280;74617;47.082;15.524;2024-01-16T06:27:27;95985.59;;;17.90;41.50
83551;BME280;74617;47.082;15.524;2024-01-16T06:29:52;95986.94;;;17.84;40.92
83551;BME280;74617;47.082;15.524;2024-01-16T06:32:18;95984.81;;;17.77;40.53
83551;BME280;74617;47.082;15.524;2024-01-16T06:34:43;95988.22;;;17.74;40.31
83551;BME280;74617;47.082;15.524;2024-01-16T06:37:09;95996.69;;;17.73;40.27
83551;BME280;74617;47.082;15.524;2024-01-16T06:39:35;96001.19;;;17.69;39.75
83551;BME280;74617;47.082;15.524;2024-01-16T06:42:00;95998.25;;;17.62;38.87
83551;BME280;74617;47.082;15.524;2024-01-16T06:44:26;96003.56;;;17.58;38.75
83551;BME280;74617;47.082;15.524;2024-01-16T06:46:51;96000.72;;;17.55;38.12
83551;BME280;74617;47.082;15.524;2024-01-16T06:49:16;96012.94;;;17.61;37.54
83551;BME280;74617;47.082;15.524;2024-01-16T06:51:42;96012.09;;;17.81;36.60
83551;BME280;74617;47.082;15.524;2024-01-16T06:54:07;96007.69;;;17.89;36.31
83551;BME280;74617;47.082;15.524;2024-01-16T06:56:33;96016.06;;;17.96;36.81
83551;BME280;74617;47.082;15.524;2024-01-16T06:58:58;96018.13;;;17.99;37.26
83551;BME280;74617;47.082;15.524;2024-01-16T07:01:24;96027.50;;;18.01;37.15
83551;BME280;74617;47.082;15.524;2024-01-16T07:03:50;96025.22;;;18.03;36.80
83551;BME280;74617;47.082;15.524;2024-01-16T07:06:15;96028.97;;;18.11;37.16
83551;BME280;74617;47.082;15.524;2024-01-16T07:08:40;96029.75;;;18.12;37.21
83551;BME280;74617;47.082;15.524;2024-01-16T07:11:06;96037.59;;;18.13;37.29
83551;BME280;74617;47.082;15.524;2024-01-16T07:13:34;96045.03;;;18.16;37.29
83551;BME280;74617;47.082;15.524;2024-01-16T07:16:00;96050.50;;;18.16;37.60
83551;BME280;74617;47.082;15.524;2024-01-16T07:18:27;96054.47;;;18.19;37.88
83551;BME280;74617;47.082;15.524;2024-01-16T07:20:53;96066.13;;;18.19;37.92
83551;BME280;74617;47.082;15.524;2024-01-16T07:23:19;96069.66;;;18.20;37.78
83551;BME280;74617;47.082;15.524;2024-01-16T07:25:44;96079.16;;;18.26;37.66
83551;BME280;74617;47.082;15.524;2024-01-16T07:28:09;96076.44;;;18.26;37.03
83551;BME280;74617;47.082;15.524;2024-01-16T07:30:35;96067.81;;;18.24;37.31
83551;BME280;74617;47.082;15.524;2024-01-16T07:33:02;96070.22;;;18.25;37.38
83551;BME280;74617;47.082;15.524;2024-01-16T07:35:27;96067.94;;;18.27;37.87
83551;BME280;74617;47.082;15.524;2024-01-16T07:37:53;96075.75;;;18.29;38.33
83551;BME280;74617;47.082;15.524;2024-01-16T07:40:18;96076.53;;;18.29;38.41
83551;BME280;74617;47.082;15.524;2024-01-16T07:42:43;96083.78;;;18.38;39.18
83551;BME280;74617;47.082;15.524;2024-01-16T07:45:09;96086.19;;;18.39;40.01
83551;BME280;74617;47.082;15.524;2024-01-16T07:47:34;96089.34;;;18.41;41.24
83551;BME280;74617;47.082;15.524;2024-01-16T07:50:01;96090.50;;;18.40;41.10
83551;BME280;74617;47.082;15.524;2024-01-16T07:52:30;96095.94;;;18.40;41.34
83551;BME280;74617;47.082;15.524;2024-01-16T07:54:55;96087.78;;;18.40;41.45
83551;BME280;74617;47.082;15.524;2024-01-16T07:57:21;96098.66;;;18.40;41.79
83551;BME280;74617;47.082;15.524;2024-01-16T07:59:46;96099.78;;;18.39;41.76
83551;BME280;74617;47.082;15.524;2024-01-16T08:02:12;96101.38;;;18.40;41.73
83551;BME280;74617;47.082;15.524;2024-01-16T08:04:37;96097.06;;;18.39;41.72
83551;BME280;74617;47.082;15.524;2024-01-16T08:07:03;96102.94;;;18.41;41.83
83551;BME280;74617;47.082;15.524;2024-01-16T08:09:29;96111.91;;;18.42;41.69
83551;BME280;74617;47.082;15.524;2024-01-16T08:11:54;96111.09;;;18.41;42.27
83551;BME280;74617;47.082;15.524;2024-01-16T08:14:19;96114.28;;;18.43;42.52
83551;BME280;74617;47.082;15.524;2024-01-16T08:16:45;96108.84;;;18.43;42.66
83551;BME280;74617;47.082;15.524;2024-01-16T08:19:10;96109.63;;;18.44;42.35
83551;BME280;74617;47.082;15.524;2024-01-16T08:21:35;96103.41;;;18.43;42.43
83551;BME280;74617;47.082;15.524;2024-01-16T08:24:01;96113.94;;;18.45;42.66
83551;BME280;74617;47.082;15.524;2024-01-16T08:26:27;96119.38;;;18.45;42.57
83551;BME280;74617;47.082;15.524;2024-01-16T08:28:53;96117.91;;;18.47;41.97
83551;BME280;74617;47.082;15.524;2024-01-16T08:31:19;96117.56;;;18.49;42.24
83551;BME280;74617;47.082;15.524;2024-01-16T08:33:45;96119.94;;;18.50;42.35
83551;BME280;74617;47.082;15.524;2024-01-16T08:36:11;96126.03;;;18.59;42.59
83551;BME280;74617;47.082;15.524;2024-01-16T08:38:36;96116.28;;;18.58;42.30
83551;BME280;74617;47.082;15.524;2024-01-16T08:41:02;96116.66;;;18.57;42.14
83551;BME280;74617;47.082;15.524;2024-01-16T08:43:31;96119.59;;;18.64;42.72
83551;BME280;74617;47.082;15.524;2024-01-16T08:45:57;96122.22;;;18.61;42.78
83551;BME280;74617;47.082;15.524;2024-01-16T08:48:22;96114.38;;;18.59;42.72
83551;BME280;74617;47.082;15.524;2024-01-16T08:50:47;96116.28;;;18.58;42.64
83551;BME280;74617;47.082;15.524;2024-01-16T08:53:13;96114.06;;;18.61;42.48
83551;BME280;74617;47.082;15.524;2024-01-16T08:55:38;96109.50;;;18.65;42.14
83551;BME280;74617;47.082;15.524;2024-01-16T08:58:03;96112.56;;;18.63;42.08
83551;BME280;74617;47.082;15.524;2024-01-16T09:00:29;96114.28;;;18.68;42.28
83551;BME280;74617;47.082;15.524;2024-01-16T09:02:54;96114.94;;;18.65;42.01
83551;BME280;74617;47.082;15.524;2024-01-16T09:05:19;96113.78;;;18.66;41.79
83551;BME280;74617;47.082;15.524;2024-01-16T09:07:50;96116.88;;;18.64;41.83
83551;BME280;74617;47.082;15.524;2024-01-16T09:10:15;96112.72;;;18.67;41.67
83551;BME280;74617;47.082;15.524;2024-01-16T09:12:42;96118.16;;;18.67;41.92
83551;BME280;74617;47.082;15.524;2024-01-16T09:15:08;96121.97;;;18.66;42.09
83551;BME280;74617;47.082;15.524;2024-01-16T09:17:33;96127.09;;;18.67;41.82
83551;BME280;74617;47.082;15.524;2024-01-16T09:19:59;96118.94;;;18.67;41.76
83551;BME280;74617;47.082;15.524;2024-01-16T09:22:24;96127.91;;;18.68;41.77
83551;BME280;74617;47.082;15.524;2024-01-16T09:24:49;96124.84;;;18.69;41.87
83551;BME280;74617;47.082;15.524;2024-01-16T09:27:15;96129.94;;;18.71;41.70
83551;BME280;74617;47.082;15.524;2024-01-16T09:29:42;96130.38;;;18.73;41.78
83551;BME280;74617;47.082;15.524;2024-01-16T09:32:07;96127.66;;;18.73;41.52
83551;BME280;74617;47.082;15.524;2024-01-16T09:34:32;96129.25;;;18.74;41.70
83551;BME280;74617;47.082;15.524;2024-01-16T09:36:58;96125.41;;;18.75;41.67
83551;BME280;74617;47.082;15.524;2024-01-16T09:39:26;96133.22;;;18.76;41.52
83551;BME280;74617;47.082;15.524;2024-01-16T09:41:51;96134.78;;;18.77;41.73
83551;BME280;74617;47.082;15.524;2024-01-16T09:44:17;96139.44;;;18.77;41.44
83551;BME280;74617;47.082;15.524;2024-01-16T09:46:44;96141.03;;;18.78;41.61
83551;BME280;74617;47.082;15.524;2024-01-16T09:49:14;96136.84;;;18.80;41.26
83551;BME280;74617;47.082;15.524;2024-01-16T09:51:39;96138.44;;;18.81;41.38
83551;BME280;74617;47.082;15.524;2024-01-16T09:54:05;96141.16;;;18.81;41.21
83551;BME280;74617;47.082;15.524;2024-01-16T09:56:35;96132.63;;;18.83;41.15
83551;BME280;74617;47.082;15.524;2024-01-16T09:59:05;96131.50;;;18.84;41.18
83551;BME280;74617;47.082;15.524;2024-01-16T10:01:33;96128.44;;;18.85;41.18
83551;BME280;74617;47.082;15.524;2024-01-16T10:03:58;96121.06;;;18.86;41.25
83551;BME280;74617;47.082;15.524;2024-01-16T10:06:27;96128.44;;;18.85;41.19
83551;BME280;74617;47.082;15.524;2024-01-16T10:08:52;96122.63;;;18.87;41.10
83551;BME280;74617;47.082;15.524;2024-01-16T10:11:18;96125.13;;;18.92;41.22
83551;BME280;74617;47.082;15.524;2024-01-16T10:13:47;96118.88;;;18.92;41.26
83551;BME280;74617;47.082;15.524;2024-01-16T10:16:12;96121.25;;;18.93;41.16
83551;BME280;74617;47.082;15.524;2024-01-16T10:18:38;96114.72;;;18.94;41.22
83551;BME280;74617;47.082;15.524;2024-01-16T10:21:04;96106.19;;;18.96;40.95
83551;BME280;74617;47.082;15.524;2024-01-16T10:23:31;96098.47;;;18.98;41.12
83551;BME280;74617;47.082;15.524;2024-01-16T10:28:39;96095.38;;;18.99;41.33
83551;BME280;74617;47.082;15.524;2024-01-16T10:31:09;96092.00;;;19.02;40.74
83551;BME280;74617;47.082;15.524;2024-01-16T10:33:35;96093.56;;;19.03;40.90
83551;BME280;74617;47.082;15.524;2024-01-16T10:36:12;96092.88;;;19.06;40.92
83551;BME280;74617;47.082;15.524;2024-01-16T10:38:38;96090.63;;;19.08;40.71
83551;BME280;74617;47.082;15.524;2024-01-16T10:41:24;96085.16;;;19.08;40.83
83551;BME280;74617;47.082;15.524;2024-01-16T10:44:04;96098.06;;;19.11;40.68
83551;BME280;74617;47.082;15.524;2024-01-16T10:46:29;96093.78;;;19.10;40.69
83551;BME280;74617;47.082;15.524;2024-01-16T10:49:01;96095.00;;;19.13;40.56
83551;BME280;74617;47.082;15.524;2024-01-16T10:51:27;96095.78;;;19.13;40.69
83551;BME280;74617;47.082;15.524;2024-01-16T10:54:03;96086.94;;;19.17;40.52
83551;BME280;74617;47.082;15.524;2024-01-16T10:56:34;96081.94;;;19.19;40.82
83551;BME280;74617;47.082;15.524;2024-01-16T11:01:43;96084.78;;;19.22;40.37
83551;BME280;74617;47.082;15.524;2024-01-16T11:04:10;96073.88;;;19.22;40.62
83551;BME280;74617;47.082;15.524;2024-01-16T11:06:37;96071.25;;;19.26;40.18
83551;BME280;74617;47.082;15.524;2024-01-16T11:09:02;96076.69;;;19.26;40.21
83551;BME280;74617;47.082;15.524;2024-01-16T11:11:28;96067.03;;;19.28;40.26
83551;BME280;74617;47.082;15.524;2024-01-16T11:13:54;96063.97;;;19.30;40.19
83551;BME280;74617;47.082;15.524;2024-01-16T11:16:21;96061.69;;;19.32;40.26
83551;BME280;74617;47.082;15.524;2024-01-16T11:18:48;96064.84;;;19.34;40.17
83551;BME280;74617;47.082;15.524;2024-01-16T11:21:15;96060.97;;;19.35;40.05
83551;BME280;74617;47.082;15.524;2024-01-16T11:23:41;96053.28;;;19.37;40.01
83551;BME280;74617;47.082;15.524;2024-01-16T11:28:52;96050.97;;;19.39;40.04
83551;BME280;74617;47.082;15.524;2024-01-16T11:33:53;96057.31;;;19.43;39.96
83551;BME280;74617;47.082;15.524;2024-01-16T11:36:46;96040.63;;;19.45;39.82
83551;BME280;74617;47.082;15.524;2024-01-16T11:39:28;96042.63;;;19.48;39.78
83551;BME280;74617;47.082;15.524;2024-01-16T11:41:57;96039.22;;;19.51;39.61
83551;BME280;74617;47.082;15.524;2024-01-16T11:44:43;96033.44;;;19.52;39.88
83551;BME280;74617;47.082;15.524;2024-01-16T11:47:18;96033.44;;;19.52;39.70
83551;BME280;74617;47.082;15.524;2024-01-16T11:49:45;96039.78;;;19.56;39.59
83551;BME280;74617;47.082;15.524;2024-01-16T11:52:11;96034.78;;;19.58;39.51
83551;BME280;74617;47.082;15.524;2024-01-16T11:54:39;96040.25;;;19.58;39.55
83551;BME280;74617;47.082;15.524;2024-01-16T12:00:04;96029.78;;;19.60;39.64
83551;BME280;74617;47.082;15.524;2024-01-16T12:02:53;96031.34;;;19.61;39.27
83551;BME280;74617;47.082;15.524;2024-01-16T12:05:21;96026.69;;;19.62;39.20
83551;BME280;74617;47.082;15.524;2024-01-16T12:07:52;96034.88;;;19.62;39.45
83551;BME280;74617;47.082;15.524;2024-01-16T12:10:26;96015.78;;;19.62;39.02
83551;BME280;74617;47.082;15.524;2024-01-16T12:12:58;96026.38;;;19.63;39.21
83551;BME280;74617;47.082;15.524;2024-01-16T12:15:24;96022.50;;;19.64;39.29
83551;BME280;74617;47.082;15.524;2024-01-16T12:20:22;96019.75;;;19.64;39.06
83551;BME280;74617;47.082;15.524;2024-01-16T12:22:58;96018.63;;;19.65;39.21
83551;BME280;74617;47.082;15.524;2024-01-16T12:25:25;96011.22;;;19.66;39.05
83551;BME280;74617;47.082;15.524;2024-01-16T12:28:00;96008.94;;;19.68;39.04
83551;BME280;74617;47.082;15.524;2024-01-16T12:30:26;95997.25;;;19.67;39.08
83551;BME280;74617;47.082;15.524;2024-01-16T12:33:13;95995.31;;;19.68;38.79
83551;BME280;74617;47.082;15.524;2024-01-16T12:35:43;95995.78;;;19.70;39.02
83551;BME280;74617;47.082;15.524;2024-01-16T12:38:11;95995.41;;;19.72;38.87
83551;BME280;74617;47.082;15.524;2024-01-16T12:40:44;95991.91;;;19.71;39.02
83551;BME280;74617;47.082;15.524;2024-01-16T12:43:11;95996.56;;;19.71;39.02
83551;BME280;74617;47.082;15.524;2024-01-16T12:45:37;95986.81;;;19.70;39.14
83551;BME280;74617;47.082;15.524;2024-01-16T12:48:03;95985.19;;;19.68;39.20
83551;BME280;74617;47.082;15.524;2024-01-16T12:50:32;95982.47;;;19.68;38.87
83551;BME280;74617;47.082;15.524;2024-01-16T12:53:05;95983.25;;;19.69;38.78
83551;BME280;74617;47.082;15.524;2024-01-16T12:55:32;95981.00;;;19.71;38.97
83551;BME280;74617;47.082;15.524;2024-01-16T13:00:39;95974.81;;;19.74;38.73
83551;BME280;74617;47.082;15.524;2024-01-16T13:03:07;95972.88;;;19.75;38.61
83551;BME280;74617;47.082;15.524;2024-01-16T13:05:34;95969.38;;;19.74;38.63